Time;durP1;ratioP1;P1;durP2;ratioP2;P2;SDS_P1;SDS_P2;PMS_P1;PMS_P2;Temp;Humidity;BMP_temperature;BMP_pressure;BME280_temperature;BME280_humidity;BME280_pressure;Samples;Min_cycle;Max_cycle;Signal;HPM_P1;HPM_P2
2021/10/21 00:01:29;;;;;;;5.00;0.70;;;13.40;69.50;;;;;;5026729;28;20060;-67
2021/10/21 00:03:55;;;;;;;7.43;1.00;;;13.50;69.70;;;;;;5025168;28;20057;-67
2021/10/21 00:06:20;;;;;;;4.20;0.80;;;13.50;69.60;;;;;;5028217;28;20045;-67
2021/10/21 00:08:46;;;;;;;5.00;0.70;;;13.40;70.20;;;;;;5028408;28;20441;-67
2021/10/21 00:11:12;;;;;;;4.32;0.60;;;13.50;68.80;;;;;;5030143;28;20388;-67
2021/10/21 00:13:38;;;;;;;4.15;0.65;;;13.50;68.80;;;;;;5026448;28;20444;-67
2021/10/21 00:16:04;;;;;;;5.35;0.70;;;13.50;68.70;;;;;;5025254;28;20104;-67
2021/10/21 00:18:30;;;;;;;6.25;1.00;;;13.60;68.60;;;;;;5028577;28;20370;-67
2021/10/21 00:20:56;;;;;;;4.60;0.70;;;13.60;68.30;;;;;;5026482;28;20751;-68
2021/10/21 00:23:22;;;;;;;5.25;0.80;;;13.70;68.70;;;;;;5030458;28;20033;-67
2021/10/21 00:25:47;;;;;;;4.57;0.75;;;13.70;68.40;;;;;;5026198;28;20515;-67
2021/10/21 00:28:14;;;;;;;4.63;0.70;;;13.70;68.70;;;;;;5026589;28;20061;-66
2021/10/21 00:30:41;;;;;;;4.20;0.77;;;13.70;68.70;;;;;;5025246;28;20477;-67
2021/10/21 00:33:06;;;;;;;4.68;0.75;;;13.70;68.90;;;;;;5023241;28;20088;-67
2021/10/21 00:35:32;;;;;;;4.95;0.77;;;13.80;69.30;;;;;;5028202;28;20029;-67
2021/10/21 00:37:58;;;;;;;5.25;0.77;;;13.80;70.50;;;;;;5024827;28;20132;-67
2021/10/21 00:40:24;;;;;;;4.35;0.70;;;13.70;70.00;;;;;;5027958;28;20022;-67
2021/10/21 00:42:50;;;;;;;5.85;0.90;;;13.80;70.90;;;;;;5025442;28;20687;-67
2021/10/21 00:45:16;;;;;;;5.32;1.00;;;13.70;71.60;;;;;;5023288;28;20556;-67
2021/10/21 00:47:42;;;;;;;5.22;0.80;;;13.70;71.60;;;;;;5028667;28;20036;-67
2021/10/21 00:50:08;;;;;;;6.32;0.73;;;13.60;71.90;;;;;;5024148;28;20033;-67
2021/10/21 00:52:34;;;;;;;7.07;1.05;;;13.60;72.70;;;;;;5026724;28;20060;-67
2021/10/21 00:55:00;;;;;;;9.18;1.30;;;13.60;73.50;;;;;;5022092;28;20018;-67
2021/10/21 00:57:27;;;;;;;5.88;0.70;;;13.60;74.20;;;;;;5015854;28;20080;-67
2021/10/21 00:59:53;;;;;;;5.75;0.98;;;13.50;74.40;;;;;;5027169;28;20092;-67
2021/10/21 01:02:19;;;;;;;7.35;1.10;;;13.50;74.40;;;;;;5024526;28;20033;-67
2021/10/21 01:04:46;;;;;;;7.82;0.98;;;13.50;74.60;;;;;;5024344;28;20396;-67
2021/10/21 01:07:12;;;;;;;7.70;1.17;;;13.50;74.50;;;;;;5027907;28;20033;-67
2021/10/21 01:09:44;;;;;;;8.48;1.00;;;13.50;74.50;;;;;;5026038;28;20497;-67
2021/10/21 01:12:12;;;;;;;5.97;1.08;;;13.40;74.20;;;;;;5012986;28;20049;-67
2021/10/21 01:14:38;;;;;;;9.13;1.30;;;13.40;74.10;;;;;;5025181;28;20085;-67
2021/10/21 01:17:04;;;;;;;12.90;1.40;;;13.40;74.20;;;;;;5028075;28;20033;-67
2021/10/21 01:19:31;;;;;;;9.80;1.25;;;13.30;74.10;;;;;;5021401;28;20030;-67
2021/10/21 01:21:57;;;;;;;9.00;1.63;;;13.20;74.10;;;;;;5023617;28;20117;-67
2021/10/21 01:24:24;;;;;;;10.27;1.52;;;13.10;74.10;;;;;;5022988;28;20028;-67
2021/10/21 01:26:52;;;;;;;11.90;1.48;;;13.00;74.20;;;;;;5026356;28;20072;-67
2021/10/21 01:29:19;;;;;;;10.25;1.40;;;13.00;74.60;;;;;;5018450;28;20022;-67
2021/10/21 01:31:46;;;;;;;12.32;1.80;;;12.90;74.60;;;;;;5018363;28;20046;-67
2021/10/21 01:34:12;;;;;;;11.98;1.60;;;12.80;74.80;;;;;;5025595;28;20025;-67
2021/10/21 01:36:39;;;;;;;10.70;1.58;;;12.80;75.00;;;;;;5023953;28;20087;-67
2021/10/21 01:39:08;;;;;;;10.18;1.52;;;12.70;75.30;;;;;;5024853;28;20049;-67
2021/10/21 01:41:33;;;;;;;10.85;1.73;;;12.70;75.40;;;;;;5031246;28;20036;-67
2021/10/21 01:43:59;;;;;;;16.98;2.05;;;12.60;75.60;;;;;;5027744;28;20112;-67
2021/10/21 01:46:26;;;;;;;11.98;1.60;;;12.60;75.70;;;;;;5026526;28;20112;-67
2021/10/21 01:48:51;;;;;;;9.98;1.55;;;12.50;75.80;;;;;;5027139;28;20033;-67
2021/10/21 01:51:17;;;;;;;13.85;1.70;;;12.50;75.80;;;;;;5028683;28;20036;-67
2021/10/21 01:53:44;;;;;;;11.98;1.45;;;12.50;76.00;;;;;;5030486;28;20396;-67
2021/10/21 01:56:09;;;;;;;11.68;1.55;;;12.40;76.10;;;;;;5030567;28;20034;-67
2021/10/21 01:58:35;;;;;;;14.98;2.03;;;12.40;76.10;;;;;;5030544;28;20026;-67
2021/10/21 02:01:02;;;;;;;17.10;2.15;;;12.40;76.30;;;;;;5025445;28;20026;-67
2021/10/21 02:03:28;;;;;;;12.45;1.73;;;12.40;76.50;;;;;;5031238;28;20025;-67
2021/10/21 02:05:53;;;;;;;13.15;1.77;;;12.30;76.50;;;;;;5013847;28;20095;-67
2021/10/21 02:08:19;;;;;;;15.23;1.88;;;12.30;76.60;;;;;;5032171;28;20032;-67
2021/10/21 02:10:46;;;;;;;14.57;1.70;;;12.30;76.70;;;;;;5029139;28;20503;-67
2021/10/21 02:13:12;;;;;;;14.48;2.00;;;12.30;76.70;;;;;;5023886;28;20042;-67
2021/10/21 02:15:37;;;;;;;11.43;1.80;;;12.30;76.90;;;;;;5027212;28;20062;-67
2021/10/21 02:18:03;;;;;;;17.58;1.92;;;12.20;76.90;;;;;;5028634;28;20029;-67
2021/10/21 02:20:29;;;;;;;12.15;1.83;;;12.20;76.90;;;;;;5016931;28;20405;-67
2021/10/21 02:22:55;;;;;;;10.90;1.77;;;12.20;77.10;;;;;;5029118;28;20489;-67
2021/10/21 02:25:21;;;;;;;11.48;1.95;;;12.20;77.20;;;;;;5028673;28;20097;-67
2021/10/21 02:27:47;;;;;;;10.38;1.98;;;12.20;77.20;;;;;;5027564;28;20041;-67
2021/10/21 02:30:14;;;;;;;13.00;2.33;;;12.20;77.20;;;;;;5029052;28;20045;-67
2021/10/21 02:32:41;;;;;;;14.30;1.98;;;12.20;77.30;;;;;;5028318;28;20037;-67
2021/10/21 02:35:09;;;;;;;12.02;1.63;;;12.10;77.40;;;;;;5027209;28;20026;-67
2021/10/21 02:37:35;;;;;;;11.02;1.70;;;12.10;77.40;;;;;;5026342;28;20125;-67
2021/10/21 02:40:02;;;;;;;15.13;2.03;;;12.10;77.50;;;;;;5026131;28;20036;-67
2021/10/21 02:42:28;;;;;;;14.23;2.22;;;12.10;77.70;;;;;;5028655;28;20032;-67
2021/10/21 02:44:54;;;;;;;10.82;1.85;;;12.00;77.80;;;;;;5025818;28;20649;-67
2021/10/21 02:47:20;;;;;;;13.82;1.85;;;12.00;77.90;;;;;;5027989;28;20061;-67
2021/10/21 02:49:45;;;;;;;12.95;2.20;;;12.00;78.00;;;;;;5028223;28;20029;-67
2021/10/21 02:52:11;;;;;;;11.75;1.80;;;12.00;78.20;;;;;;5023561;28;20042;-67
2021/10/21 02:54:37;;;;;;;16.33;1.80;;;12.00;78.20;;;;;;5029117;28;20465;-67
2021/10/21 02:57:03;;;;;;;14.07;2.00;;;12.00;78.30;;;;;;5015591;28;20459;-67
2021/10/21 02:59:29;;;;;;;14.80;1.83;;;11.90;78.40;;;;;;5031892;28;20017;-67
2021/10/21 03:01:55;;;;;;;11.23;1.95;;;11.90;78.40;;;;;;5027813;28;20072;-67
2021/10/21 03:04:21;;;;;;;16.27;2.30;;;11.90;78.60;;;;;;5026039;28;20029;-67
2021/10/21 03:06:47;;;;;;;14.85;1.80;;;11.90;78.70;;;;;;5027778;28;20044;-67
2021/10/21 03:09:12;;;;;;;14.38;2.20;;;11.90;78.80;;;;;;5028077;28;20036;-67
2021/10/21 03:11:38;;;;;;;12.90;2.10;;;11.90;78.80;;;;;;5022873;28;20065;-67
2021/10/21 03:14:04;;;;;;;17.65;2.03;;;11.80;78.80;;;;;;5029273;28;20029;-67
2021/10/21 03:16:34;;;;;;;14.45;2.30;;;11.80;78.80;;;;;;5027619;28;20030;-67
2021/10/21 03:19:03;;;;;;;15.90;2.47;;;11.80;79.10;;;;;;5025068;28;20071;-67
2021/10/21 03:21:29;;;;;;;13.93;1.98;;;11.80;79.10;;;;;;5025417;28;20046;-67
2021/10/21 03:23:56;;;;;;;15.80;2.00;;;11.70;79.00;;;;;;5029834;28;20029;-67
2021/10/21 03:26:22;;;;;;;13.45;1.70;;;11.70;79.10;;;;;;5027332;28;20032;-67
2021/10/21 03:28:48;;;;;;;14.77;2.22;;;11.70;79.10;;;;;;5027746;28;20037;-67
2021/10/21 03:31:14;;;;;;;14.93;2.10;;;11.70;79.30;;;;;;5021488;28;20025;-67
2021/10/21 03:33:40;;;;;;;12.95;2.00;;;11.70;79.40;;;;;;5023857;28;20439;-67
2021/10/21 03:36:05;;;;;;;12.70;1.67;;;11.70;79.40;;;;;;5024399;28;20489;-67
2021/10/21 03:38:32;;;;;;;11.98;2.10;;;11.70;79.40;;;;;;5026631;28;20030;-67
2021/10/21 03:40:58;;;;;;;13.85;1.90;;;11.60;79.40;;;;;;5027864;28;20021;-67
2021/10/21 03:43:24;;;;;;;13.93;1.98;;;11.60;79.40;;;;;;5025849;28;20033;-67
2021/10/21 03:45:50;;;;;;;10.30;1.95;;;11.60;79.30;;;;;;5026444;28;20502;-67
2021/10/21 03:48:17;;;;;;;15.77;2.20;;;11.60;79.30;;;;;;5019269;28;20026;-67
2021/10/21 03:50:42;;;;;;;17.02;2.25;;;11.60;79.40;;;;;;5021607;28;20029;-67
2021/10/21 03:53:11;;;;;;;15.25;1.92;;;11.60;79.40;;;;;;5028316;28;20038;-67
2021/10/21 03:55:37;;;;;;;14.15;2.25;;;11.60;79.60;;;;;;5023018;28;20116;-67
2021/10/21 03:58:03;;;;;;;14.88;1.90;;;11.50;79.50;;;;;;5025303;28;20029;-67
2021/10/21 04:00:29;;;;;;;18.17;2.13;;;11.50;79.50;;;;;;5028704;28;20025;-67
2021/10/21 04:02:55;;;;;;;13.40;2.00;;;11.50;79.50;;;;;;5026295;28;20017;-67
2021/10/21 04:05:22;;;;;;;16.73;2.40;;;11.50;79.60;;;;;;5029584;28;20032;-67
2021/10/21 04:07:48;;;;;;;21.88;2.15;;;11.50;79.60;;;;;;5027246;28;20041;-67
2021/10/21 04:10:14;;;;;;;16.45;2.30;;;11.40;79.60;;;;;;5026791;28;20440;-67
2021/10/21 04:12:40;;;;;;;13.98;1.80;;;11.40;79.70;;;;;;5024571;28;20072;-67
2021/10/21 04:15:07;;;;;;;14.98;1.98;;;11.40;79.70;;;;;;5028492;28;20028;-67
2021/10/21 04:17:33;;;;;;;10.98;1.88;;;11.40;79.70;;;;;;5013749;28;20057;-67
2021/10/21 04:19:59;;;;;;;13.13;1.67;;;11.30;79.70;;;;;;5027305;28;20132;-67
2021/10/21 04:22:25;;;;;;;15.68;2.00;;;11.30;79.80;;;;;;5019914;28;20133;-67
2021/10/21 04:24:52;;;;;;;14.65;1.90;;;11.30;80.80;;;;;;5017084;28;20045;-67
2021/10/21 04:27:18;;;;;;;13.95;1.80;;;11.30;80.00;;;;;;5013586;28;20034;-66
2021/10/21 04:29:44;;;;;;;15.10;2.00;;;11.30;80.00;;;;;;5028400;28;20033;-66
2021/10/21 04:32:10;;;;;;;11.32;2.08;;;11.30;80.10;;;;;;5015397;28;20748;-67
2021/10/21 04:34:36;;;;;;;15.63;2.15;;;11.20;80.10;;;;;;5018495;28;20026;-65
2021/10/21 04:37:02;;;;;;;14.95;2.22;;;11.20;80.20;;;;;;5026528;28;20079;-67
2021/10/21 04:39:28;;;;;;;15.23;2.08;;;11.20;80.30;;;;;;5028464;28;20033;-66
2021/10/21 04:41:54;;;;;;;11.38;2.08;;;11.20;80.40;;;;;;5028342;28;20092;-67
2021/10/21 04:44:20;;;;;;;12.55;2.25;;;11.30;80.40;;;;;;5026691;28;20431;-67
2021/10/21 04:46:46;;;;;;;11.73;1.73;;;11.20;80.40;;;;;;5026385;28;20075;-66
2021/10/21 04:49:12;;;;;;;17.92;2.28;;;11.20;80.40;;;;;;5029392;28;20042;-66
2021/10/21 04:51:38;;;;;;;15.38;2.38;;;11.20;80.30;;;;;;5026361;28;20034;-67
2021/10/21 04:54:03;;;;;;;14.13;2.40;;;11.20;80.30;;;;;;5030504;28;20071;-66
2021/10/21 04:56:29;;;;;;;12.15;2.15;;;11.20;80.40;;;;;;5039911;28;20021;-67
2021/10/21 04:58:55;;;;;;;15.55;2.28;;;11.20;80.40;;;;;;5028559;28;20034;-68
2021/10/21 05:01:21;;;;;;;13.48;2.15;;;11.20;80.50;;;;;;5027143;28;20053;-67
2021/10/21 05:03:46;;;;;;;9.85;2.13;;;11.20;80.70;;;;;;5026743;28;20030;-68
2021/10/21 05:06:12;;;;;;;12.82;2.17;;;11.20;80.70;;;;;;5060935;28;20022;-67
2021/10/21 05:08:38;;;;;;;11.63;1.85;;;11.20;80.90;;;;;;5025897;28;20049;-68
2021/10/21 05:11:04;;;;;;;18.35;2.40;;;11.30;81.00;;;;;;5015784;28;20030;-68
2021/10/21 05:13:29;;;;;;;16.27;2.17;;;11.30;81.10;;;;;;5024452;28;20045;-67
2021/10/21 05:15:55;;;;;;;13.75;2.10;;;11.20;81.20;;;;;;5060390;28;20109;-67
2021/10/21 05:18:21;;;;;;;15.18;2.30;;;11.20;81.30;;;;;;5030274;28;20108;-66
2021/10/21 05:20:47;;;;;;;16.80;2.30;;;11.30;81.50;;;;;;5027465;28;20076;-67
2021/10/21 05:23:13;;;;;;;15.35;2.17;;;11.30;81.60;;;;;;5018976;28;20033;-67
2021/10/21 05:25:38;;;;;;;13.13;2.30;;;11.30;81.60;;;;;;5025452;28;20496;-67
2021/10/21 05:28:04;;;;;;;15.80;2.10;;;11.30;81.60;;;;;;5030546;28;20467;-67
2021/10/21 05:30:31;;;;;;;16.48;2.10;;;11.30;81.60;;;;;;5027110;28;20049;-66
2021/10/21 05:32:57;;;;;;;14.93;1.92;;;11.30;81.50;;;;;;5016469;28;20049;-64
2021/10/21 05:35:23;;;;;;;16.63;2.15;;;11.30;81.50;;;;;;5018604;28;20416;-66
2021/10/21 05:37:50;;;;;;;15.63;1.90;;;11.30;81.50;;;;;;5024307;28;20021;-66
2021/10/21 05:40:20;;;;;;;19.33;2.30;;;11.30;81.50;;;;;;5030085;28;20492;-66
2021/10/21 05:42:46;;;;;;;11.55;2.10;;;11.30;81.50;;;;;;5030479;28;20033;-65
2021/10/21 05:45:11;;;;;;;16.30;2.40;;;11.30;81.40;;;;;;5028937;28;20021;-65
2021/10/21 05:47:37;;;;;;;13.63;2.15;;;11.30;81.40;;;;;;5022684;28;20017;-65
2021/10/21 05:50:04;;;;;;;16.80;2.22;;;11.30;81.40;;;;;;5029465;28;20040;-65
2021/10/21 05:52:30;;;;;;;14.75;2.20;;;11.30;81.50;;;;;;5024683;28;20393;-65
2021/10/21 05:54:56;;;;;;;16.50;2.28;;;11.30;81.60;;;;;;5028595;28;20020;-65
2021/10/21 05:57:22;;;;;;;14.57;2.17;;;11.30;81.50;;;;;;5030408;28;20405;-65
2021/10/21 05:59:47;;;;;;;14.93;2.47;;;11.30;81.60;;;;;;5027559;28;20029;-65
2021/10/21 06:02:13;;;;;;;16.88;2.00;;;11.30;81.60;;;;;;5031873;28;20043;-65
2021/10/21 06:04:39;;;;;;;36.50;15.80;;;11.30;81.60;;;;;;5028256;28;20120;-65
2021/10/21 06:07:05;;;;;;;14.85;3.05;;;11.30;81.60;;;;;;5024359;28;20401;-65
2021/10/21 06:09:30;;;;;;;19.33;2.20;;;11.30;81.50;;;;;;5019052;28;20111;-65
2021/10/21 06:11:56;;;;;;;11.70;1.80;;;11.40;81.60;;;;;;5013033;28;20026;-64
2021/10/21 06:14:22;;;;;;;11.15;1.70;;;11.40;81.50;;;;;;5032704;28;20104;-63
2021/10/21 06:16:49;;;;;;;14.60;2.10;;;11.50;81.40;;;;;;5026212;28;20033;-65
2021/10/21 06:19:17;;;;;;;16.30;2.25;;;11.50;81.30;;;;;;5026730;28;20021;-65
2021/10/21 06:21:47;;;;;;;19.40;2.03;;;11.50;81.20;;;;;;5026929;28;20046;-65
2021/10/21 06:24:16;;;;;;;17.50;2.63;;;11.50;81.10;;;;;;5027751;28;20556;-64
2021/10/21 06:26:41;;;;;;;13.25;2.10;;;11.60;81.10;;;;;;5031100;28;20036;-65
2021/10/21 06:29:07;;;;;;;13.85;2.08;;;11.60;81.00;;;;;;5030030;28;20030;-65
2021/10/21 06:31:33;;;;;;;12.85;1.70;;;11.70;81.10;;;;;;5025347;28;20080;-65
2021/10/21 06:33:59;;;;;;;11.55;1.80;;;11.70;80.80;;;;;;5025187;28;20057;-65
2021/10/21 06:36:28;;;;;;;17.60;2.20;;;11.70;80.60;;;;;;5027588;28;20105;-65
2021/10/21 06:38:53;;;;;;;15.73;2.45;;;11.80;80.50;;;;;;5021307;28;20034;-65
2021/10/21 06:41:19;;;;;;;16.20;2.55;;;11.80;80.40;;;;;;5021832;28;20028;-65
2021/10/21 06:43:45;;;;;;;14.45;2.00;;;11.80;80.30;;;;;;5020024;28;20285;-65
2021/10/21 06:46:11;;;;;;;12.88;1.83;;;11.80;80.20;;;;;;5016571;28;20037;-65
2021/10/21 06:48:37;;;;;;;14.32;2.28;;;11.80;80.30;;;;;;5025141;28;20034;-65
2021/10/21 06:51:03;;;;;;;15.50;2.00;;;11.80;80.20;;;;;;5012441;28;20065;-65
2021/10/21 06:53:29;;;;;;;16.00;1.70;;;11.80;80.10;;;;;;5030388;28;20038;-65
2021/10/21 06:55:55;;;;;;;12.27;1.88;;;11.90;79.80;;;;;;5016478;28;20041;-65
2021/10/21 06:58:20;;;;;;;14.00;1.55;;;12.10;79.30;;;;;;5026805;28;20036;-66
2021/10/21 07:00:48;;;;;;;15.05;1.90;;;12.20;78.90;;;;;;5026025;28;20037;-64
2021/10/21 07:03:14;;;;;;;14.02;1.95;;;12.40;78.40;;;;;;5018924;28;20010;-64
2021/10/21 07:05:42;;;;;;;16.33;2.20;;;12.60;78.10;;;;;;5013571;28;20448;-65
2021/10/21 07:08:12;;;;;;;12.40;2.13;;;12.70;77.60;;;;;;5017610;28;20486;-65
2021/10/21 07:10:38;;;;;;;15.13;2.00;;;12.80;77.50;;;;;;5023575;28;20022;-65
2021/10/21 07:13:05;;;;;;;11.23;1.77;;;12.80;77.40;;;;;;5028985;28;20039;-65
2021/10/21 07:15:34;;;;;;;12.52;1.90;;;12.90;77.00;;;;;;5027302;28;20394;-65
2021/10/21 07:18:01;;;;;;;17.50;2.63;;;12.90;76.80;;;;;;5011879;28;20087;-65
2021/10/21 07:20:27;;;;;;;16.50;2.20;;;12.90;77.70;;;;;;5026690;28;20473;-65
2021/10/21 07:22:53;;;;;;;16.83;2.10;;;12.90;76.70;;;;;;5016560;28;20071;-65
2021/10/21 07:25:19;;;;;;;16.25;2.00;;;13.00;76.60;;;;;;5025985;28;20037;-65
2021/10/21 07:27:46;;;;;;;16.60;2.03;;;13.00;76.50;;;;;;5026531;28;20060;-66
2021/10/21 07:30:13;;;;;;;18.13;2.03;;;13.10;76.60;;;;;;5030440;28;20021;-65
2021/10/21 07:32:40;;;;;;;12.95;2.10;;;13.10;76.60;;;;;;5030843;28;20057;-65
2021/10/21 07:35:06;;;;;;;12.85;2.00;;;13.30;76.20;;;;;;5016024;28;20068;-65
2021/10/21 07:37:32;;;;;;;13.38;1.50;;;13.30;75.70;;;;;;5017746;28;20018;-65
2021/10/21 07:39:58;;;;;;;19.95;2.30;;;13.40;75.70;;;;;;5016346;28;20028;-65
2021/10/21 07:42:23;;;;;;;15.77;2.10;;;13.40;75.70;;;;;;5018909;28;20396;-65
2021/10/21 07:44:49;;;;;;;16.88;1.98;;;13.40;75.50;;;;;;5013667;28;20034;-66
2021/10/21 07:47:18;;;;;;;19.35;2.33;;;13.50;75.50;;;;;;5027516;28;20040;-65
2021/10/21 07:49:45;;;;;;;12.30;2.33;;;13.50;75.20;;;;;;5016947;28;20040;-65
2021/10/21 07:52:11;;;;;;;15.10;1.88;;;13.60;75.10;;;;;;5019428;28;20201;-65
2021/10/21 07:54:36;;;;;;;16.98;2.25;;;13.70;74.80;;;;;;5015622;28;20372;-65
2021/10/21 07:57:06;;;;;;;17.42;2.17;;;13.90;74.80;;;;;;5022651;28;20096;-65
2021/10/21 07:59:34;;;;;;;16.75;2.30;;;14.00;74.20;;;;;;5030218;28;20409;-65
2021/10/21 08:02:01;;;;;;;15.98;2.13;;;14.10;73.80;;;;;;5015358;28;20072;-65
2021/10/21 08:04:28;;;;;;;15.40;2.10;;;14.20;73.50;;;;;;5018576;28;20579;-65
2021/10/21 08:06:56;;;;;;;16.85;2.58;;;14.40;73.20;;;;;;5025865;28;20029;-66
2021/10/21 08:09:26;;;;;;;14.50;2.10;;;14.50;72.90;;;;;;5026317;28;20044;-65
2021/10/21 08:11:53;;;;;;;15.13;2.03;;;14.60;72.10;;;;;;5011935;28;20604;-65
2021/10/21 08:14:20;;;;;;;19.15;2.70;;;14.60;72.10;;;;;;5029821;28;20057;-66
2021/10/21 08:16:47;;;;;;;15.25;2.22;;;14.70;72.40;;;;;;5017948;28;20087;-65
2021/10/21 08:19:13;;;;;;;14.10;2.05;;;14.70;72.60;;;;;;5020216;28;20500;-66
2021/10/21 08:21:40;;;;;;;19.55;3.15;;;14.80;72.20;;;;;;5025099;28;20053;-65
2021/10/21 08:24:06;;;;;;;15.10;1.85;;;14.90;72.40;;;;;;5011658;28;20033;-65
2021/10/21 08:26:32;;;;;;;19.42;2.70;;;15.00;71.10;;;;;;5029800;28;20018;-65
2021/10/21 08:28:59;;;;;;;24.13;2.60;;;15.20;71.60;;;;;;5017648;28;20104;-66
2021/10/21 08:31:25;;;;;;;16.25;2.03;;;15.20;71.80;;;;;;5025866;28;20079;-65
2021/10/21 08:33:51;;;;;;;15.02;2.28;;;15.10;71.80;;;;;;5026315;28;20135;-65
2021/10/21 08:36:21;;;;;;;15.48;2.28;;;15.10;72.40;;;;;;5028370;28;20030;-66
2021/10/21 08:38:49;;;;;;;16.35;2.38;;;15.10;72.60;;;;;;5027159;28;20033;-65
2021/10/21 08:41:16;;;;;;;18.63;2.47;;;15.10;72.90;;;;;;5030034;28;20095;-64
2021/10/21 08:43:43;;;;;;;19.98;2.20;;;15.10;73.20;;;;;;5025468;28;20026;-65
2021/10/21 08:46:11;;;;;;;19.75;3.22;;;15.00;73.10;;;;;;5025533;28;20112;-65
2021/10/21 08:48:40;;;;;;;19.65;2.22;;;15.10;73.50;;;;;;5027187;28;20032;-65
2021/10/21 08:51:07;;;;;;;19.02;2.65;;;15.00;74.00;;;;;;5043547;28;20121;-65
2021/10/21 08:53:33;;;;;;;16.52;2.08;;;15.00;74.30;;;;;;5017784;28;20057;-65
2021/10/21 08:56:00;;;;;;;18.30;2.70;;;15.00;74.30;;;;;;5022390;28;20124;-65
2021/10/21 08:58:27;;;;;;;20.27;2.42;;;15.00;74.90;;;;;;5024281;28;20028;-65
2021/10/21 09:01:01;;;;;;;16.92;2.10;;;15.00;74.70;;;;;;5024546;28;20439;-65
2021/10/21 09:04:02;;;;;;;20.15;2.40;;;15.10;74.70;;;;;;5023104;28;20095;-65
2021/10/21 09:06:48;;;;;;;19.80;2.95;;;15.60;73.90;;;;;;5022040;28;20021;-65
2021/10/21 09:09:29;;;;;;;16.67;2.65;;;17.10;69.70;;;;;;5015418;28;20474;-66
2021/10/21 09:12:06;;;;;;;15.70;2.42;;;17.40;67.60;;;;;;5014930;28;20042;-65
2021/10/21 09:14:36;;;;;;;15.13;2.38;;;17.80;66.60;;;;;;5026972;28;20033;-66
2021/10/21 09:17:07;;;;;;;18.92;2.58;;;17.90;65.20;;;;;;5042757;28;20034;-66
2021/10/21 09:19:34;;;;;;;15.45;2.20;;;17.90;65.90;;;;;;5020875;28;20121;-66
2021/10/21 09:22:00;;;;;;;21.67;5.38;;;17.80;65.10;;;;;;5025319;28;20100;-66
2021/10/21 09:24:39;;;;;;;13.77;2.80;;;20.20;62.50;;;;;;5018606;28;20033;-66
2021/10/21 09:27:15;;;;;;;16.48;2.50;;;21.30;56.00;;;;;;5015017;28;20035;-66
2021/10/21 09:29:50;;;;;;;20.00;2.88;;;21.00;55.60;;;;;;5031953;28;20033;-66
2021/10/21 09:32:16;;;;;;;15.27;2.58;;;20.60;56.90;;;;;;5017465;28;20040;-66
2021/10/21 09:34:53;;;;;;;16.92;4.00;;;20.20;58.30;;;;;;5019883;28;20485;-66
2021/10/21 09:37:28;;;;;;;20.77;2.80;;;21.70;57.10;;;;;;5018278;28;20026;-66
2021/10/21 09:40:04;;;;;;;18.50;2.72;;;22.50;53.60;;;;;;5019248;28;20033;-66
2021/10/21 09:42:32;;;;;;;13.88;2.55;;;22.20;53.10;;;;;;5028386;28;20114;-66
2021/10/21 09:45:18;;;;;;;13.32;2.30;;;22.60;51.40;;;;;;5029534;28;20033;-66
2021/10/21 09:47:49;;;;;;;12.48;2.55;;;22.10;52.00;;;;;;5029182;28;20021;-66
2021/10/21 09:50:23;;;;;;;13.45;2.47;;;22.40;53.00;;;;;;5017899;28;20025;-66
2021/10/21 09:53:06;;;;;;;12.50;2.47;;;22.60;53.10;;;;;;5025933;28;20061;-66
2021/10/21 09:55:33;;;;;;;12.95;2.10;;;22.70;52.40;;;;;;5030801;28;20021;-66
2021/10/21 09:58:06;;;;;;;15.80;2.38;;;23.60;50.00;;;;;;5026065;28;20022;-67
2021/10/21 10:00:34;;;;;;;11.40;2.25;;;23.30;50.80;;;;;;5052925;28;20389;-67
2021/10/21 10:03:17;;;;;;;16.63;2.70;;;24.20;47.80;;;;;;5024804;28;20307;-65
2021/10/21 10:05:48;;;;;;;13.60;2.38;;;23.00;50.00;;;;;;5023331;28;20025;-63
2021/10/21 10:08:17;;;;;;;11.23;1.98;;;22.20;52.50;;;;;;5017532;28;20022;-66
2021/10/21 10:10:45;;;;;;;13.82;2.33;;;21.60;54.20;;;;;;5026380;28;20472;-67
2021/10/21 10:13:12;;;;;;;15.48;2.55;;;21.40;55.90;;;;;;5023754;28;20049;-66
2021/10/21 10:15:39;;;;;;;14.95;2.00;;;20.80;56.60;;;;;;5020567;28;20044;-67
2021/10/21 10:18:07;;;;;;;15.85;2.40;;;20.90;57.20;;;;;;5033020;28;20484;-67
2021/10/21 10:20:34;;;;;;;12.77;2.22;;;20.70;57.90;;;;;;5030985;28;20536;-67
2021/10/21 10:23:03;;;;;;;17.10;2.40;;;20.50;58.50;;;;;;5027896;28;20080;-66
2021/10/21 10:25:29;;;;;;;18.95;2.55;;;20.40;59.40;;;;;;5022679;28;20374;-66
2021/10/21 10:28:05;;;;;;;13.23;2.03;;;20.40;59.30;;;;;;5029025;28;20599;-66
2021/10/21 10:30:43;;;;;;;15.27;2.50;;;20.10;59.40;;;;;;5028535;28;20026;-67
2021/10/21 10:33:09;;;;;;;12.15;2.03;;;19.80;60.80;;;;;;5042545;28;20042;-67
2021/10/21 10:35:41;;;;;;;13.45;2.05;;;19.70;62.00;;;;;;5030561;28;20399;-67
2021/10/21 10:38:09;;;;;;;13.32;2.10;;;19.60;62.40;;;;;;5028261;28;20029;-67
2021/10/21 10:40:38;;;;;;;12.63;2.10;;;19.50;62.70;;;;;;5030186;28;20044;-67
2021/10/21 10:43:04;;;;;;;12.10;1.95;;;19.30;62.80;;;;;;5027402;28;20030;-67
2021/10/21 10:45:42;;;;;;;12.00;1.73;;;19.30;63.30;;;;;;5026803;28;20029;-67
2021/10/21 10:48:09;;;;;;;12.43;2.00;;;19.30;63.40;;;;;;5019788;28;20018;-67
2021/10/21 10:50:41;;;;;;;10.95;1.88;;;19.20;63.40;;;;;;5023069;28;20056;-67
2021/10/21 10:53:07;;;;;;;12.38;1.60;;;19.20;63.70;;;;;;5027026;28;20073;-67
2021/10/21 10:55:39;;;;;;;10.35;1.70;;;19.20;63.50;;;;;;5027778;28;20075;-67
2021/10/21 10:58:14;;;;;;;8.27;1.75;;;19.40;63.70;;;;;;5021762;28;20068;-67
2021/10/21 11:00:50;;;;;;;7.65;1.20;;;19.50;63.40;;;;;;5016825;28;20392;-66
2021/10/21 11:03:33;;;;;;;10.45;1.50;;;19.20;64.70;;;;;;5015268;28;20045;-66
2021/10/21 11:06:06;;;;;;;10.98;1.52;;;19.00;66.50;;;;;;5028247;28;20029;-66
2021/10/21 11:08:50;;;;;;;10.60;1.40;;;18.90;67.60;;;;;;5027079;28;20033;-66
2021/10/21 11:11:38;;;;;;;14.18;1.80;;;18.80;68.20;;;;;;5031059;28;20408;-67
2021/10/21 11:14:10;;;;;;;10.60;1.33;;;18.70;69.00;;;;;;5025671;28;20037;-67
2021/10/21 11:16:38;;;;;;;9.15;1.60;;;18.50;69.40;;;;;;5026974;28;20207;-67
2021/10/21 11:19:04;;;;;;;10.95;1.58;;;18.40;70.30;;;;;;5026890;28;20389;-67
2021/10/21 11:21:52;;;;;;;8.15;1.10;;;18.20;71.00;;;;;;5024728;28;20081;-67
2021/10/21 11:24:42;;;;;;;7.60;1.15;;;18.00;71.50;;;;;;5013868;28;20080;-67
2021/10/21 11:27:08;;;;;;;8.45;1.40;;;17.90;71.90;;;;;;5017423;28;20071;-66
2021/10/21 11:29:35;;;;;;;8.45;1.42;;;17.90;72.20;;;;;;5028893;28;20116;-67
2021/10/21 11:32:17;;;;;;;8.77;1.42;;;17.80;72.50;;;;;;5018454;28;20033;-66
2021/10/21 11:34:48;;;;;;;9.95;1.20;;;17.70;73.20;;;;;;5021958;28;20021;-67
2021/10/21 11:37:14;;;;;;;10.52;1.33;;;17.50;73.90;;;;;;5024050;28;20049;-67
2021/10/21 11:39:40;;;;;;;15.55;1.85;;;17.40;74.80;;;;;;5026007;28;20071;-66
2021/10/21 11:42:11;;;;;;;6.65;1.10;;;17.20;76.10;;;;;;5025692;28;20017;-67
2021/10/21 11:44:38;;;;;;;7.28;1.13;;;17.00;76.70;;;;;;5014097;28;20030;-67
2021/10/21 11:47:06;;;;;;;4.80;0.88;;;16.90;77.50;;;;;;5025136;28;20108;-67
2021/10/21 11:49:34;;;;;;;5.47;1.00;;;16.80;77.80;;;;;;5026471;28;20021;-67
2021/10/21 11:52:08;;;;;;;6.00;1.15;;;16.80;78.10;;;;;;5023485;28;20060;-66
2021/10/21 11:54:36;;;;;;;5.57;0.90;;;16.60;78.00;;;;;;5025205;28;20021;-66
2021/10/21 11:57:02;;;;;;;6.00;0.98;;;16.60;78.10;;;;;;5016811;28;20018;-67
2021/10/21 11:59:33;;;;;;;6.10;1.13;;;16.70;78.20;;;;;;5029640;28;20033;-67
2021/10/21 12:02:13;;;;;;;5.57;0.90;;;18.10;76.30;;;;;;5026955;28;20041;-67
2021/10/21 12:04:42;;;;;;;4.53;0.82;;;18.90;71.90;;;;;;5023782;28;20044;-67
2021/10/21 12:07:08;;;;;;;3.33;0.73;;;21.40;64.20;;;;;;5026113;28;20037;-68
2021/10/21 12:09:36;;;;;;;3.30;0.80;;;26.30;53.80;;;;;;5028055;28;20017;-67
2021/10/21 12:12:09;;;;;;;2.53;0.73;;;29.40;47.70;;;;;;5022030;28;20025;-68
2021/10/21 12:14:36;;;;;;;3.95;0.70;;;31.80;42.00;;;;;;5025639;28;20025;-68
2021/10/21 12:17:04;;;;;;;7.78;1.10;;;33.80;37.60;;;;;;5028665;28;20460;-68
2021/10/21 12:19:30;;;;;;;4.60;0.90;;;34.80;35.20;;;;;;5018633;28;20485;-68
2021/10/21 12:22:13;;;;;;;5.70;0.90;;;34.90;33.40;;;;;;5026190;28;20037;-68
2021/10/21 12:24:42;;;;;;;5.03;0.65;;;35.40;30.70;;;;;;5024951;28;20037;-68
2021/10/21 12:27:08;;;;;;;4.32;0.85;;;36.00;29.00;;;;;;5021379;28;20029;-68
2021/10/21 12:29:43;;;;;;;4.28;0.80;;;34.70;30.20;;;;;;5029651;28;20036;-68
2021/10/21 12:32:22;;;;;;;4.70;0.80;;;32.80;31.10;;;;;;5024359;28;20124;-68
2021/10/21 12:34:49;;;;;;;6.60;0.85;;;32.70;32.00;;;;;;5024600;28;20056;-68
2021/10/21 12:37:27;;;;;;;4.60;0.75;;;31.40;32.00;;;;;;5026183;28;20029;-68
2021/10/21 12:39:52;;;;;;;7.00;0.70;;;32.70;33.90;;;;;;5025628;28;20025;-68
2021/10/21 12:42:21;;;;;;;3.08;0.68;;;30.50;33.80;;;;;;5028531;28;20025;-67